Terminal Aerodrome Forecast
Issued by NWS Cheyenne, WY

Home | Current Version | Previous Version | Text Only | Print | Product List | Glossary On
Versions: 1 2 3 4 5 6 7 8 9 10 11 12 13 14 15 16 17 18 19 20 21 22 23 24 25 26 27 28 29 30 31 32
570
FTUS45 KCYS 250538
TAFCYS
TAF
KCYS 250538Z 2506/2606 29012KT P6SM VCSH SCT100
      TEMPO 2506/2507 5SM -RA BR BKN025
     FM251300 30018G26KT P6SM BKN080
     FM252000 34020G30KT P6SM OVC040=

USA.gov is the U.S. government's official web portal to all federal, state and local government web resources and services.